Time;durP1;ratioP1;P1;durP2;ratioP2;P2;SDS_P1;SDS_P2;PMS_P1;PMS_P2;Temp;Humidity;BMP_temperature;BMP_pressure;BME280_temperature;BME280_humidity;BME280_pressure;Samples;Min_cycle;Max_cycle;Signal;HPM_P1;HPM_P2
2023/08/25 00:02:01;;;;;;;0.52;0.52;;;;;;;8.86;100.00;99111.25;5073080;28;20044;-88
2023/08/25 00:04:28;;;;;;;0.60;0.60;;;;;;;8.81;100.00;99097.66;5073765;28;20491;-89
2023/08/25 00:06:56;;;;;;;0.60;0.60;;;;;;;8.78;100.00;99103.50;5072011;28;20106;-88
2023/08/25 00:09:24;;;;;;;0.60;0.60;;;;;;;8.70;100.00;99096.59;5072191;28;20055;-88
2023/08/25 00:11:51;;;;;;;0.60;0.60;;;;;;;8.74;100.00;99103.16;5071552;28;20066;-88
2023/08/25 00:14:18;;;;;;;0.50;0.50;;;;;;;8.71;100.00;99103.63;5071611;28;20048;-88
2023/08/25 00:16:45;;;;;;;0.60;0.60;;;;;;;8.77;100.00;99115.34;5071207;28;20562;-88
2023/08/25 00:19:16;;;;;;;0.60;0.60;;;;;;;8.64;100.00;99092.97;5071410;28;20048;-88
2023/08/25 00:21:45;;;;;;;0.60;0.60;;;;;;;8.67;100.00;99111.31;5071100;28;20041;-89
2023/08/25 00:24:12;;;;;;;0.60;0.60;;;;;;;8.56;100.00;99095.97;5070962;28;20495;-89
2023/08/25 00:26:39;;;;;;;0.60;0.60;;;;;;;8.68;100.00;99109.44;5053335;28;20110;-89
2023/08/25 00:29:07;;;;;;;0.60;0.60;;;;;;;8.52;100.00;99102.84;5053151;28;20049;-89
2023/08/25 00:31:34;;;;;;;0.55;0.55;;;;;;;8.54;100.00;99102.63;5036609;28;20048;-89
2023/08/25 00:34:04;;;;;;;0.60;0.60;;;;;;;8.46;100.00;99101.09;5070747;28;20106;-89
2023/08/25 00:36:32;;;;;;;0.60;0.60;;;;;;;8.32;100.00;99086.16;5052732;28;20052;-90
2023/08/25 00:38:59;;;;;;;0.60;0.60;;;;;;;8.40;100.00;99102.81;5070782;28;20552;-88
2023/08/25 00:41:26;;;;;;;0.60;0.60;;;;;;;8.41;100.00;99100.97;5053111;28;20052;-89
2023/08/25 00:43:53;;;;;;;0.68;0.68;;;;;;;8.28;100.00;99093.00;5070839;28;20053;-89
2023/08/25 00:46:21;;;;;;;0.60;0.60;;;;;;;8.26;100.00;99079.81;5070792;28;20052;-89
2023/08/25 00:48:49;;;;;;;0.60;0.60;;;;;;;8.24;100.00;99088.09;5053134;28;20052;-88
2023/08/25 00:51:17;;;;;;;0.60;0.60;;;;;;;8.37;100.00;99111.31;5053334;28;20404;-89
2023/08/25 00:53:45;;;;;;;0.70;0.70;;;;;;;8.36;100.00;99112.34;5070373;28;20044;-89
2023/08/25 00:56:16;;;;;;;0.60;0.60;;;;;;;8.19;100.00;99090.66;5053004;28;20049;-88
2023/08/25 00:58:43;;;;;;;0.70;0.70;;;;;;;8.25;100.00;99110.41;5053090;28;20044;-89
2023/08/25 01:01:11;;;;;;;0.70;0.70;;;;;;;8.20;100.00;99119.19;5070584;28;20052;-90
2023/08/25 01:03:39;;;;;;;0.60;0.60;;;;;;;8.17;100.00;99119.63;5052216;28;20052;-89
2023/08/25 01:06:08;;;;;;;0.60;0.60;;;;;;;8.03;100.00;99107.41;5052634;28;20056;-90
2023/08/25 01:08:37;;;;;;;0.60;0.60;;;;;;;8.02;100.00;99119.19;5052675;28;20076;-88
2023/08/25 01:11:29;;;;;;;0.70;0.70;;;;;;;8.02;100.00;99124.56;5070517;28;20048;-89
2023/08/25 01:14:06;;;;;;;0.60;0.60;;;;;;;8.00;100.00;99123.97;5070531;28;20527;-89
2023/08/25 01:16:37;;;;;;;0.60;0.60;;;;;;;8.00;100.00;99132.03;5070410;28;20056;-88
2023/08/25 01:19:14;;;;;;;0.70;0.70;;;;;;;7.98;100.00;99123.38;5052542;28;20048;-88
2023/08/25 01:21:46;;;;;;;0.70;0.70;;;;;;;7.98;100.00;99129.59;5052611;28;20048;-89
2023/08/25 01:24:21;;;;;;;0.60;0.60;;;;;;;7.97;100.00;99130.59;5035895;28;20076;-88
2023/08/25 01:26:49;;;;;;;0.65;0.65;;;;;;;7.87;100.00;99124.13;5070057;28;20084;-88
2023/08/25 01:29:16;;;;;;;0.60;0.60;;;;;;;7.88;100.00;99118.53;5070192;28;20045;-88
2023/08/25 01:31:43;;;;;;;0.60;0.60;;;;;;;7.80;100.00;99106.22;5070000;28;20139;-88
2023/08/25 01:34:13;;;;;;;0.60;0.60;;;;;;;7.91;100.00;99117.25;5035833;28;20518;-87
2023/08/25 01:36:48;;;;;;;0.60;0.60;;;;;;;7.86;100.00;99114.44;5069875;28;20447;-89
2023/08/25 01:39:16;;;;;;;0.60;0.60;;;;;;;7.80;100.00;99116.97;5052192;28;20057;-89
2023/08/25 01:41:46;;;;;;;0.60;0.60;;;;;;;7.92;100.00;99132.31;5069857;28;20057;-88
2023/08/25 01:44:15;;;;;;;0.60;0.60;;;;;;;7.87;100.00;99127.63;5070045;28;20056;-88
2023/08/25 01:46:51;;;;;;;0.60;0.60;;;;;;;7.75;100.00;99108.75;5055037;28;20066;-89
2023/08/25 01:49:20;;;;;;;0.60;0.60;;;;;;;7.73;100.00;99120.78;5055998;28;20139;-89
2023/08/25 01:51:47;;;;;;;0.60;0.60;;;;;;;7.67;100.00;99101.00;5056193;28;20419;-89
2023/08/25 01:54:14;;;;;;;0.60;0.60;;;;;;;7.88;100.00;99118.53;5056126;28;20044;-88
2023/08/25 01:56:41;;;;;;;0.60;0.60;;;;;;;7.98;100.00;99126.06;5056144;28;20076;-88
2023/08/25 01:59:09;;;;;;;0.60;0.60;;;;;;;8.06;100.00;99133.84;5056100;28;20048;-89
2023/08/25 02:01:36;;;;;;;0.60;0.60;;;;;;;8.04;100.00;99122.47;5039430;28;20573;-89
2023/08/25 02:04:03;;;;;;;0.70;0.70;;;;;;;8.11;100.00;99123.22;5073717;28;20040;-89
2023/08/25 02:06:30;;;;;;;0.68;0.68;;;;;;;8.11;100.00;99103.59;5039925;28;20066;-88
2023/08/25 02:08:58;;;;;;;0.60;0.60;;;;;;;8.20;100.00;99119.19;5073453;28;20141;-88
2023/08/25 02:11:27;;;;;;;0.70;0.70;;;;;;;8.29;100.00;99132.31;5039389;28;20131;-87
2023/08/25 02:13:54;;;;;;;0.60;0.60;;;;;;;8.15;100.00;99111.00;5055481;28;20052;-89
2023/08/25 02:16:21;;;;;;;0.70;0.70;;;;;;;8.15;100.00;99121.75;5073568;28;20053;-88
2023/08/25 02:18:48;;;;;;;0.60;0.60;;;;;;;7.99;100.00;99115.09;5055484;28;20049;-88
2023/08/25 02:21:16;;;;;;;0.55;0.55;;;;;;;7.96;100.00;99122.78;5055580;28;20433;-87
2023/08/25 02:23:43;;;;;;;0.63;0.63;;;;;;;7.98;100.00;99129.59;5038763;28;20067;-87
2023/08/25 02:26:11;;;;;;;0.70;0.70;;;;;;;8.02;100.00;99136.13;5073324;28;20164;-88
2023/08/25 02:28:38;;;;;;;0.60;0.60;;;;;;;7.94;100.00;99109.56;5073237;28;20044;-87
2023/08/25 02:31:05;;;;;;;0.60;0.60;;;;;;;8.11;100.00;99147.41;5073540;28;20044;-88
2023/08/25 02:33:33;;;;;;;0.60;0.60;;;;;;;8.02;100.00;99132.63;5055641;28;20045;-88
2023/08/25 02:36:01;;;;;;;0.60;0.60;;;;;;;8.03;100.00;99135.09;5038872;28;20462;-88
2023/08/25 02:38:28;;;;;;;0.60;0.60;;;;;;;7.89;100.00;99117.47;5055173;28;20040;-88
2023/08/25 02:40:55;;;;;;;0.60;0.60;;;;;;;8.02;100.00;99140.69;5073063;28;20458;-89
2023/08/25 02:43:22;;;;;;;0.60;0.60;;;;;;;7.96;100.00;99131.66;5022450;28;20040;-88
2023/08/25 02:45:50;;;;;;;0.70;0.70;;;;;;;7.93;100.00;99134.00;5038335;28;20056;-88
2023/08/25 02:48:17;;;;;;;0.60;0.60;;;;;;;7.84;100.00;99119.19;5054952;28;20511;-89
2023/08/25 02:50:46;;;;;;;0.70;0.70;;;;;;;7.85;100.00;99128.88;5054998;28;20068;-87
2023/08/25 02:53:13;;;;;;;0.60;0.60;;;;;;;7.92;100.00;99146.59;5055112;28;20125;-89
2023/08/25 02:55:40;;;;;;;0.70;0.70;;;;;;;7.84;100.00;99122.69;5054826;28;20048;-89
2023/08/25 02:58:08;;;;;;;0.68;0.68;;;;;;;7.86;100.00;99122.50;5054964;28;20063;-88
2023/08/25 03:00:35;;;;;;;0.70;0.70;;;;;;;7.88;100.00;99125.78;5072635;28;20562;-89
2023/08/25 03:03:03;;;;;;;0.70;0.70;;;;;;;7.86;100.00;99119.81;5072766;28;20076;-88
2023/08/25 03:05:30;;;;;;;0.60;0.60;;;;;;;7.94;100.00;99138.31;5072840;28;20084;-88
2023/08/25 03:07:57;;;;;;;0.70;0.70;;;;;;;7.97;100.00;99135.97;5072299;28;20491;-90
2023/08/25 03:10:24;;;;;;;0.68;0.68;;;;;;;7.92;100.00;99133.16;5054636;28;20509;-89
2023/08/25 03:12:52;;;;;;;0.60;0.60;;;;;;;8.19;100.00;99152.47;5054271;28;20506;-89
2023/08/25 03:15:20;;;;;;;0.70;0.70;;;;;;;8.14;100.00;99141.59;5054565;28;20048;-88
2023/08/25 03:17:48;;;;;;;0.70;0.70;;;;;;;8.28;100.00;99155.69;5054276;28;20058;-88
2023/08/25 03:20:17;;;;;;;0.70;0.70;;;;;;;8.42;100.00;99169.81;5054467;28;20056;-88
2023/08/25 03:22:44;;;;;;;0.60;0.60;;;;;;;8.33;100.00;99155.84;5054622;28;20040;-88
2023/08/25 03:25:11;;;;;;;0.60;0.60;;;;;;;8.32;100.00;99139.94;5054398;28;20098;-89
2023/08/25 03:27:39;;;;;;;0.70;0.70;;;;;;;8.42;100.00;99153.69;5054548;28;20055;-89
2023/08/25 03:30:06;;;;;;;0.70;0.70;;;;;;;8.47;100.00;99156.50;5072290;28;20051;-90
2023/08/25 03:32:34;;;;;;;0.60;0.60;;;;;;;8.56;100.00;99165.06;5054638;28;20087;-90
2023/08/25 03:35:01;;;;;;;0.65;0.65;;;;;;;8.58;100.00;99169.22;5054578;28;20418;-91
2023/08/25 03:37:30;;;;;;;0.70;0.70;;;;;;;8.53;100.00;99157.47;5078642;28;20063;-89
2023/08/25 03:40:03;;;;;;;0.70;0.70;;;;;;;8.60;100.00;99164.41;5096858;28;20152;-88
2023/08/25 03:42:32;;;;;;;0.70;0.70;;;;;;;8.75;100.00;99179.31;5068343;28;20041;-89
2023/08/25 03:45:00;;;;;;;0.70;0.70;;;;;;;8.59;100.00;99157.38;5053528;28;20488;-89
2023/08/25 03:47:31;;;;;;;0.70;0.70;;;;;;;8.70;100.00;99157.66;5054736;28;20051;-90
2023/08/25 03:49:59;;;;;;;0.70;0.70;;;;;;;8.92;100.00;99180.31;5053692;28;20100;-89
2023/08/25 03:52:26;;;;;;;0.70;0.70;;;;;;;8.89;100.00;99164.66;5053588;28;20074;-88
2023/08/25 03:54:53;;;;;;;0.60;0.60;;;;;;;9.05;100.00;99163.97;5053526;28;20045;-88
2023/08/25 03:57:21;;;;;;;0.60;0.60;;;;;;;9.04;100.00;99170.41;5037589;28;20098;-87
2023/08/25 03:59:48;;;;;;;0.70;0.70;;;;;;;9.09;100.00;99172.41;5071958;28;20083;-88
2023/08/25 04:02:16;;;;;;;0.60;0.60;;;;;;;9.20;100.00;99182.38;5037149;28;20055;-87
2023/08/25 04:04:45;;;;;;;0.70;0.70;;;;;;;9.23;100.00;99168.44;5053363;28;20084;-88
2023/08/25 04:07:13;;;;;;;0.60;0.60;;;;;;;9.39;100.00;99175.03;5071134;28;20048;-88
2023/08/25 04:09:41;;;;;;;0.70;0.70;;;;;;;9.45;100.00;99181.38;5052666;28;20044;-87
2023/08/25 04:12:08;;;;;;;0.70;0.70;;;;;;;9.54;100.00;99183.50;5036877;28;20075;-90
2023/08/25 04:14:37;;;;;;;0.70;0.70;;;;;;;9.60;100.00;99170.16;5036908;28;20048;-89
2023/08/25 04:17:05;;;;;;;0.70;0.70;;;;;;;9.72;100.00;99179.88;5053310;28;20106;-88
2023/08/25 04:19:34;;;;;;;0.60;0.60;;;;;;;9.90;100.00;99189.72;5055212;28;20048;-89
2023/08/25 04:22:03;;;;;;;0.55;0.55;;;;;;;9.95;100.00;99195.22;5071277;28;20052;-88
2023/08/25 04:24:30;;;;;;;0.60;0.60;;;;;;;10.04;100.00;99186.75;5053424;28;20044;-88
2023/08/25 04:26:57;;;;;;;0.60;0.60;;;;;;;10.07;100.00;99186.28;5054746;28;20523;-89
2023/08/25 04:29:24;;;;;;;0.50;0.50;;;;;;;10.23;100.00;99192.81;5072337;28;20072;-89
2023/08/25 04:31:52;;;;;;;0.60;0.60;;;;;;;10.25;100.00;99178.03;5054581;28;20055;-90
2023/08/25 04:34:29;;;;;;;0.60;0.60;;;;;;;10.28;100.00;99161.41;5039945;28;20056;-89
2023/08/25 04:36:56;;;;;;;0.60;0.60;;;;;;;10.46;100.00;99189.25;5071593;28;20844;-89
2023/08/25 04:39:24;;;;;;;0.70;0.70;;;;;;;10.58;100.00;99190.06;5053016;28;20082;-90
2023/08/25 04:41:52;;;;;;;0.60;0.60;;;;;;;10.77;100.00;99202.31;5070840;28;20052;-88
2023/08/25 04:44:19;;;;;;;0.63;0.63;;;;;;;10.77;100.00;99186.13;5052704;28;20123;-90
2023/08/25 04:46:47;;;;;;;0.60;0.60;;;;;;;10.99;100.00;99201.66;5052453;28;20079;-91
2023/08/25 04:49:15;;;;;;;0.60;0.60;;;;;;;11.09;100.00;99215.34;5053372;28;20160;-90
2023/08/25 04:51:42;;;;;;;0.60;0.60;;;;;;;11.07;100.00;99202.06;5052913;28;20053;-90
2023/08/25 04:54:10;;;;;;;0.60;0.60;;;;;;;11.18;100.00;99208.44;5052682;28;20086;-90
2023/08/25 04:56:40;;;;;;;0.68;0.68;;;;;;;11.34;100.00;99206.81;5053966;28;20147;-90
2023/08/25 04:59:08;;;;;;;0.60;0.60;;;;;;;11.55;100.00;99209.91;5052832;28;20139;-90
2023/08/25 05:01:35;;;;;;;0.60;0.60;;;;;;;11.57;100.00;99203.19;5052855;28;20045;-91
2023/08/25 05:04:03;;;;;;;0.50;0.50;;;;;;;11.74;100.00;99211.25;5036458;28;20040;-91
2023/08/25 05:06:32;;;;;;;0.60;0.60;;;;;;;11.76;100.00;99194.81;5052592;28;20055;-91
2023/08/25 05:09:00;;;;;;;0.60;0.60;;;;;;;11.89;99.94;99195.28;5052452;28;20495;-90
2023/08/25 05:11:27;;;;;;;0.60;0.60;;;;;;;12.02;98.99;99198.72;5036321;28;20048;-90
2023/08/25 05:13:57;;;;;;;0.60;0.60;;;;;;;12.16;97.75;99193.78;5035920;28;20602;-91
2023/08/25 05:16:24;;;;;;;0.60;0.60;;;;;;;12.39;96.50;99212.47;5036118;28;20045;-90
2023/08/25 05:18:55;;;;;;;0.60;0.60;;;;;;;12.35;95.08;99193.19;5052371;28;20048;-91
2023/08/25 05:21:23;;;;;;;0.60;0.60;;;;;;;12.55;93.78;99195.34;5037831;28;20044;-89
2023/08/25 05:24:20;;;;;;;0.60;0.60;;;;;;;12.63;90.76;99190.56;5074469;28;20072;-89
2023/08/25 05:26:53;;;;;;;0.60;0.60;;;;;;;12.88;89.39;99204.38;5056687;28;20056;-89
2023/08/25 05:29:23;;;;;;;0.52;0.52;;;;;;;13.06;87.64;99221.34;5057076;28;20561;-90
2023/08/25 05:31:53;;;;;;;0.50;0.50;;;;;;;13.07;86.84;99204.03;5056378;28;20135;-89
2023/08/25 05:34:52;;;;;;;0.60;0.60;;;;;;;13.22;85.76;99218.56;4991902;28;20058;-91
2023/08/25 05:37:20;;;;;;;0.55;0.55;;;;;;;13.30;84.44;99222.72;4976078;28;20061;-91
2023/08/25 05:39:47;;;;;;;0.60;0.60;;;;;;;13.40;83.75;99219.28;4992436;28;20237;-89
2023/08/25 05:42:14;;;;;;;0.60;0.60;;;;;;;13.39;83.07;99204.91;4976365;28;20050;-88
2023/08/25 05:44:43;;;;;;;0.50;0.50;;;;;;;13.60;82.10;99216.75;4975867;28;20066;-89
2023/08/25 05:47:10;;;;;;;0.60;0.60;;;;;;;13.72;79.69;99218.44;4976565;28;20141;-90
2023/08/25 05:49:37;;;;;;;0.60;0.60;;;;;;;13.87;77.87;99219.41;4976725;28;20153;-90
2023/08/25 05:52:05;;;;;;;0.60;0.60;;;;;;;13.96;76.57;99227.03;4976804;28;20109;-89
2023/08/25 05:54:32;;;;;;;0.60;0.60;;;;;;;13.95;74.88;99207.25;4960039;28;20509;-91
2023/08/25 05:56:59;;;;;;;0.60;0.60;;;;;;;14.18;73.96;99235.88;4975669;28;20097;-89
2023/08/25 05:59:27;;;;;;;0.50;0.50;;;;;;;14.22;73.50;99231.53;4975723;28;20540;-91
2023/08/25 06:01:54;;;;;;;0.50;0.50;;;;;;;14.25;73.21;99231.00;4991919;28;20061;-90
2023/08/25 06:04:21;;;;;;;0.60;0.60;;;;;;;14.22;72.59;99212.53;4975949;28;20057;-89
2023/08/25 06:06:48;;;;;;;0.50;0.50;;;;;;;14.41;71.61;99221.06;4992309;28;20578;-90
2023/08/25 06:09:17;;;;;;;0.60;0.60;;;;;;;14.52;70.49;99230.06;4992604;28;20049;-90
2023/08/25 06:11:45;;;;;;;0.60;0.60;;;;;;;14.57;70.43;99238.25;5072671;28;20109;-89
2023/08/25 06:14:12;;;;;;;0.50;0.50;;;;;;;14.61;68.99;99224.97;5074177;28;20048;-90
2023/08/25 06:16:40;;;;;;;0.50;0.50;;;;;;;14.61;68.78;99219.53;5075311;28;20055;-90
2023/08/25 06:19:07;;;;;;;0.60;0.60;;;;;;;14.68;69.81;99215.47;5073746;28;20449;-90
2023/08/25 06:21:35;;;;;;;0.60;0.60;;;;;;;14.91;70.43;99221.53;5073667;28;20578;-89
2023/08/25 06:24:03;;;;;;;0.50;0.50;;;;;;;15.15;70.55;99227.31;5075013;28;20127;-90
2023/08/25 06:26:30;;;;;;;0.50;0.50;;;;;;;15.22;68.70;99232.47;5055689;28;20044;-90
2023/08/25 06:28:57;;;;;;;0.50;0.50;;;;;;;15.22;67.09;99227.03;5055133;28;20076;-90
2023/08/25 06:31:25;;;;;;;0.60;0.60;;;;;;;15.22;65.94;99206.13;5072724;28;20059;-90
2023/08/25 06:33:52;;;;;;;0.60;0.60;;;;;;;15.44;64.48;99211.28;5038806;28;20049;-88
2023/08/25 06:36:19;;;;;;;0.60;0.60;;;;;;;15.54;63.51;99216.72;5038658;28;20040;-90
2023/08/25 06:38:48;;;;;;;0.50;0.50;;;;;;;15.67;62.08;99220.81;5072866;28;20057;-90
2023/08/25 06:41:23;;;;;;;0.60;0.60;;;;;;;15.71;61.54;99216.50;5073204;28;20215;-90
2023/08/25 06:43:51;;;;;;;0.50;0.50;;;;;;;15.83;61.23;99224.38;5055615;28;20475;-90
2023/08/25 06:46:18;;;;;;;0.60;0.60;;;;;;;15.85;59.71;99214.03;5072699;28;20109;-89
2023/08/25 06:48:46;;;;;;;0.57;0.57;;;;;;;15.74;57.65;99220.56;5072588;28;20463;-88
2023/08/25 06:51:13;;;;;;;0.40;0.40;;;;;;;15.56;58.46;99220.00;5072791;28;20041;-88
2023/08/25 06:53:40;;;;;;;0.50;0.50;;;;;;;15.46;58.64;99235.50;5054936;28;20480;-90
2023/08/25 06:56:07;;;;;;;0.50;0.50;;;;;;;15.39;58.49;99235.75;5073759;28;20052;-89
2023/08/25 06:58:36;;;;;;;0.47;0.47;;;;;;;15.27;58.96;99230.59;5055209;28;20045;-91
2023/08/25 07:01:04;;;;;;;0.40;0.40;;;;;;;15.15;58.46;99224.59;5072940;28;20045;-90
2023/08/25 07:03:31;;;;;;;0.50;0.50;;;;;;;15.15;58.30;99236.28;5055777;28;20053;-89
2023/08/25 07:06:01;;;;;;;0.40;0.40;;;;;;;15.10;57.04;99230.81;5073296;28;20049;-89
2023/08/25 07:08:29;;;;;;;0.50;0.50;;;;;;;15.05;56.33;99225.38;5072641;28;20044;-90
2023/08/25 07:10:56;;;;;;;0.50;0.50;;;;;;;15.21;56.16;99244.44;5055008;28;20569;-87
2023/08/25 07:13:23;;;;;;;0.50;0.50;;;;;;;15.14;58.21;99233.81;5072564;28;20422;-90
2023/08/25 07:15:51;;;;;;;0.50;0.50;;;;;;;15.00;58.65;99228.09;5037957;28;20049;-89
2023/08/25 07:18:18;;;;;;;0.50;0.50;;;;;;;15.05;57.00;99240.88;5038473;28;20115;-89
2023/08/25 07:20:45;;;;;;;0.50;0.50;;;;;;;15.16;56.11;99237.88;5054794;28;20116;-90
2023/08/25 07:23:12;;;;;;;0.50;0.50;;;;;;;15.69;55.52;99250.47;5055018;28;20048;-90
2023/08/25 07:25:43;;;;;;;0.60;0.60;;;;;;;16.36;53.74;99234.91;5072610;28;20057;-89
2023/08/25 07:28:11;;;;;;;0.60;0.60;;;;;;;16.84;51.78;99227.94;5056494;28;20049;-89
2023/08/25 07:30:39;;;;;;;0.60;0.60;;;;;;;17.41;51.51;99238.50;5054662;28;20091;-89
2023/08/25 07:33:07;;;;;;;0.60;0.60;;;;;;;17.94;49.66;99244.09;5040756;28;20072;-89
2023/08/25 07:35:35;;;;;;;0.60;0.60;;;;;;;18.37;49.68;99238.75;5071775;28;20094;-89
2023/08/25 07:38:03;;;;;;;0.60;0.60;;;;;;;18.64;47.25;99246.38;5053813;28;20493;-89
2023/08/25 07:40:31;;;;;;;0.57;0.57;;;;;;;18.93;46.75;99243.56;5071602;28;20044;-90
2023/08/25 07:43:01;;;;;;;0.60;0.60;;;;;;;18.90;45.24;99244.16;5053727;28;20095;-89
2023/08/25 07:45:29;;;;;;;0.50;0.50;;;;;;;18.91;45.75;99234.81;5053641;28;20117;-89
2023/08/25 07:48:01;;;;;;;0.50;0.50;;;;;;;18.93;45.59;99240.81;5053575;28;20048;-86
2023/08/25 07:50:30;;;;;;;0.60;0.60;;;;;;;18.95;44.14;99222.19;5054155;28;20064;-89
2023/08/25 07:52:58;;;;;;;0.60;0.60;;;;;;;19.03;43.38;99231.66;5071402;28;20130;-90
2023/08/25 07:55:26;;;;;;;0.50;0.50;;;;;;;19.37;44.36;99225.97;5054296;28;20478;-88
2023/08/25 07:57:55;;;;;;;0.52;0.52;;;;;;;19.73;43.04;99235.56;5071273;28;20044;-89
2023/08/25 08:00:23;;;;;;;0.50;0.50;;;;;;;19.80;43.46;99241.47;5071480;28;20084;-89
2023/08/25 08:02:50;;;;;;;0.60;0.60;;;;;;;19.83;42.50;99238.94;5037622;28;20483;-90
2023/08/25 08:05:18;;;;;;;0.60;0.60;;;;;;;19.76;42.06;99227.56;5071404;28;20159;-91
2023/08/25 08:07:47;;;;;;;0.50;0.50;;;;;;;19.63;42.93;99244.75;5053437;28;20418;-90
2023/08/25 08:10:17;;;;;;;0.50;0.50;;;;;;;19.11;43.44;99244.66;5053457;28;20051;-92
2023/08/25 08:12:46;;;;;;;0.40;0.40;;;;;;;18.92;45.18;99225.53;5053939;28;20040;-89
2023/08/25 08:15:14;;;;;;;0.40;0.40;;;;;;;17.94;44.29;99238.63;5037304;28;20489;-89
2023/08/25 08:17:41;;;;;;;0.50;0.50;;;;;;;17.61;45.50;99240.25;5053090;28;20051;-89
2023/08/25 08:20:13;;;;;;;0.43;0.43;;;;;;;17.52;46.14;99248.22;5053823;28;20051;-90
2023/08/25 08:22:42;;;;;;;0.50;0.50;;;;;;;17.49;46.82;99235.16;5071044;28;20431;-89
2023/08/25 08:25:11;;;;;;;0.80;0.80;;;;;;;18.41;46.19;99235.16;5071049;28;20467;-89
2023/08/25 08:27:39;;;;;;;0.70;0.70;;;;;;;19.74;43.47;99240.75;5054233;28;20147;-88
2023/08/25 08:30:08;;;;;;;0.60;0.60;;;;;;;19.98;42.61;99239.78;5052980;28;20056;-90
2023/08/25 08:32:38;;;;;;;0.60;0.60;;;;;;;19.82;42.62;99241.97;5070591;28;20080;-90
2023/08/25 08:35:08;;;;;;;0.55;0.55;;;;;;;19.26;43.51;99238.16;5070821;28;20055;-90
2023/08/25 08:37:37;;;;;;;0.40;0.40;;;;;;;18.69;44.64;99240.03;5070464;28;20189;-90
2023/08/25 08:40:05;;;;;;;0.50;0.50;;;;;;;18.44;45.94;99236.47;5052058;28;20557;-89
2023/08/25 08:42:36;;;;;;;0.50;0.50;;;;;;;18.86;44.82;99232.16;5070785;28;20171;-89
2023/08/25 08:45:09;;;;;;;0.80;0.80;;;;;;;19.60;43.45;99257.09;5053155;28;20143;-90
2023/08/25 08:47:38;;;;;;;0.40;0.40;;;;;;;19.29;43.84;99229.38;5070415;28;20053;-89
2023/08/25 08:50:07;;;;;;;0.40;0.40;;;;;;;18.98;44.25;99235.28;5070077;28;20507;-91
2023/08/25 08:52:35;;;;;;;0.40;0.40;;;;;;;18.18;44.14;99244.16;5070615;28;20044;-90
2023/08/25 08:55:08;;;;;;;0.40;0.40;;;;;;;17.88;45.29;99229.69;5070141;28;20173;-90
2023/08/25 08:57:36;;;;;;;0.40;0.40;;;;;;;17.88;45.91;99245.25;5070717;28;20044;-90
2023/08/25 09:00:08;;;;;;;0.47;0.47;;;;;;;18.04;45.95;99257.66;5070351;28;20106;-89
2023/08/25 09:02:36;;;;;;;0.50;0.50;;;;;;;18.17;45.71;99251.50;5070469;28;20131;-89
2023/08/25 09:05:05;;;;;;;0.45;0.45;;;;;;;18.77;45.25;99255.81;5052458;28;20049;-89
2023/08/25 09:07:34;;;;;;;0.50;0.50;;;;;;;19.52;43.53;99249.53;5069905;28;20052;-89
2023/08/25 09:10:04;;;;;;;0.40;0.40;;;;;;;19.19;42.07;99243.19;5052149;28;20400;-89
2023/08/25 09:12:31;;;;;;;0.40;0.40;;;;;;;19.20;43.17;99255.78;5052208;28;20529;-88
2023/08/25 09:14:59;;;;;;;0.50;0.50;;;;;;;19.71;43.36;99246.81;5069962;28;20064;-90
2023/08/25 09:17:27;;;;;;;0.77;0.77;;;;;;;20.75;41.34;99236.44;4991220;28;20517;-90
2023/08/25 09:20:04;;;;;;;0.70;0.70;;;;;;;22.19;38.74;99228.38;4959573;28;20135;-90
2023/08/25 09:22:34;;;;;;;0.70;0.70;;;;;;;22.89;36.82;99233.00;4991468;28;20072;-90
2023/08/25 09:25:02;;;;;;;0.70;0.70;;;;;;;23.33;35.72;99244.91;4975327;28;20445;-90
2023/08/25 09:27:30;;;;;;;0.60;0.60;;;;;;;23.88;35.46;99237.94;5008290;28;20583;-90
2023/08/25 09:29:59;;;;;;;0.60;0.60;;;;;;;24.53;33.66;99255.25;4976780;28;20097;-90
2023/08/25 09:32:28;;;;;;;0.70;0.70;;;;;;;25.02;32.32;99250.13;5008821;28;20050;-92
2023/08/25 09:34:57;;;;;;;0.35;0.35;;;;;;;24.08;33.89;99241.94;5008703;28;20112;-89
2023/08/25 09:37:39;;;;;;;0.30;0.30;;;;;;;22.32;37.22;99224.75;4995189;28;20049;-88
2023/08/25 09:40:17;;;;;;;0.30;0.30;;;;;;;21.47;39.56;99237.59;5022586;28;20089;-90
2023/08/25 09:42:45;;;;;;;0.30;0.30;;;;;;;20.85;39.19;99217.00;5023681;28;20127;-90
2023/08/25 09:45:12;;;;;;;0.30;0.30;;;;;;;20.29;39.00;99229.91;5014604;28;20186;-92
2023/08/25 09:47:43;;;;;;;0.30;0.30;;;;;;;20.44;37.69;99234.28;4985380;28;20080;-90
2023/08/25 09:50:15;;;;;;;0.40;0.40;;;;;;;20.19;39.61;99226.53;5071164;28;20056;-89
2023/08/25 09:52:44;;;;;;;0.40;0.40;;;;;;;20.18;38.75;99236.69;5052608;28;20414;-90
2023/08/25 09:55:12;;;;;;;0.40;0.40;;;;;;;20.03;38.21;99215.88;5071402;28;20140;-91
2023/08/25 09:57:39;;;;;;;0.50;0.50;;;;;;;20.54;38.84;99214.06;5052650;28;20101;-90
2023/08/25 10:00:09;;;;;;;0.80;0.80;;;;;;;21.66;36.78;99227.25;5052260;28;20048;-90
2023/08/25 10:02:42;;;;;;;0.60;0.60;;;;;;;23.34;33.29;99191.44;5069991;28;20045;-90
2023/08/25 10:05:13;;;;;;;0.40;0.40;;;;;;;22.23;34.90;99229.38;5052734;28;20054;-90
2023/08/25 10:07:41;;;;;;;0.40;0.40;;;;;;;21.48;35.72;99207.09;5054509;28;20086;-91
2023/08/25 10:10:09;;;;;;;0.70;0.70;;;;;;;22.13;34.50;99213.97;5056252;28;20055;-90
2023/08/25 10:12:38;;;;;;;0.70;0.70;;;;;;;23.57;32.85;99232.56;5056175;28;20048;-90
2023/08/25 10:15:08;;;;;;;0.60;0.60;;;;;;;24.93;31.05;99237.53;5073357;28;20044;-91
2023/08/25 10:17:36;;;;;;;0.40;0.40;;;;;;;24.06;31.12;99213.09;5056057;28;20041;-89
2023/08/25 10:20:08;;;;;;;0.70;0.70;;;;;;;24.74;30.85;99235.19;5055870;28;20052;-89
2023/08/25 10:22:37;;;;;;;0.70;0.70;;;;;;;25.86;29.63;99221.72;5055819;28;20052;-90
2023/08/25 10:25:05;;;;;;;0.60;0.60;;;;;;;25.97;28.75;99219.31;5055385;28;20049;-90
2023/08/25 10:27:33;;;;;;;0.70;0.70;;;;;;;26.23;29.10;99222.59;5055667;28;20045;-89
2023/08/25 10:30:01;;;;;;;0.40;0.40;;;;;;;25.54;28.12;99217.75;5055316;28;20076;-90
2023/08/25 10:33:06;;;;;;;0.30;0.30;;;;;;;22.64;31.75;99236.50;5039777;28;20055;-90
2023/08/25 10:35:46;;;;;;;0.30;0.30;;;;;;;22.02;33.04;99227.16;5074055;28;20067;-88
2023/08/25 10:38:19;;;;;;;0.40;0.40;;;;;;;20.93;35.15;99226.44;5073770;28;20064;-90
2023/08/25 10:40:53;;;;;;;0.40;0.40;;;;;;;20.57;36.25;99229.94;5074667;28;20652;-90
2023/08/25 10:43:30;;;;;;;0.88;0.88;;;;;;;21.76;34.84;99231.69;5055594;28;20519;-89
2023/08/25 10:46:07;;;;;;;0.50;0.50;;;;;;;21.69;34.78;99212.09;5055198;28;20147;-90
2023/08/25 10:48:37;;;;;;;0.63;0.63;;;;;;;23.88;32.27;99224.16;5073293;28;20083;-91
2023/08/25 10:51:16;;;;;;;0.60;0.60;;;;;;;25.44;29.97;99207.94;5056250;28;20044;-89
2023/08/25 10:53:51;;;;;;;0.70;0.70;;;;;;;26.53;28.17;99216.88;5075498;28;20051;-88
2023/08/25 10:56:20;;;;;;;0.70;0.70;;;;;;;27.06;27.61;99220.50;5055218;28;20048;-91
2023/08/25 10:59:09;;;;;;;0.60;0.60;;;;;;;27.63;26.54;99205.56;5073773;28;20048;-90
2023/08/25 11:01:37;;;;;;;0.60;0.60;;;;;;;27.17;26.41;99216.09;5056480;28;20055;-91
2023/08/25 11:04:08;;;;;;;0.60;0.60;;;;;;;27.06;26.16;99216.94;5072728;28;20082;-89
2023/08/25 11:06:46;;;;;;;0.60;0.60;;;;;;;28.23;25.42;99210.34;5072590;28;20072;-91
2023/08/25 11:09:26;;;;;;;0.60;0.60;;;;;;;28.92;25.19;99210.84;5074727;28;20051;-92
2023/08/25 11:12:03;;;;;;;0.55;0.55;;;;;;;29.58;24.39;99206.31;5055125;28;20052;-92
2023/08/25 11:14:35;;;;;;;0.60;0.60;;;;;;;29.89;24.25;99199.75;5072664;28;20049;-91
2023/08/25 11:17:05;;;;;;;0.50;0.50;;;;;;;30.01;24.46;99199.59;5054216;28;20087;-91
2023/08/25 11:19:36;;;;;;;0.50;0.50;;;;;;;30.15;24.28;99199.03;5071139;28;20056;-93
2023/08/25 11:22:05;;;;;;;0.50;0.50;;;;;;;30.74;24.06;99198.78;5054558;28;20060;-92
2023/08/25 11:24:33;;;;;;;0.50;0.50;;;;;;;30.76;23.20;99188.09;5072870;28;20079;-93
2023/08/25 11:27:05;;;;;;;0.50;0.50;;;;;;;31.22;23.34;99190.72;5055881;28;20148;-92
2023/08/25 11:29:33;;;;;;;0.50;0.50;;;;;;;31.29;23.22;99196.41;5074303;28;20514;-93
2023/08/25 11:32:02;;;;;;;0.50;0.50;;;;;;;31.30;23.42;99192.44;5074089;28;20048;-94
2023/08/25 11:34:31;;;;;;;0.50;0.50;;;;;;;31.79;22.48;99190.63;5075452;28;20052;-93
2023/08/25 11:37:01;;;;;;;0.50;0.50;;;;;;;31.61;22.42;99179.28;5039964;28;20075;-95
2023/08/25 11:39:28;;;;;;;0.50;0.50;;;;;;;31.51;22.43;99187.13;5038374;28;20094;-94
2023/08/25 11:41:56;;;;;;;0.20;0.20;;;;;;;29.98;23.39;99196.72;5037366;28;20079;-92
2023/08/25 11:44:24;;;;;;;0.20;0.20;;;;;;;28.77;23.74;99201.38;5071690;28;20056;-93